Time;durP1;ratioP1;P1;durP2;ratioP2;P2;SDS_P1;SDS_P2;PMS_P1;PMS_P2;Temp;Humidity;BMP_temperature;BMP_pressure;BME280_temperature;BME280_humidity;BME280_pressure;Samples;Min_cycle;Max_cycle;Signal;HPM_P1;HPM_P2
2021/09/06 00:00:05;;;;;;;1.65;1.40;;;;;;;;;;5025905;28;20029;-79
2021/09/06 00:02:31;;;;;;;2.25;1.70;;;;;;;;;;5025544;28;20128;-79
2021/09/06 00:04:58;;;;;;;1.52;1.48;;;;;;;;;;5025833;28;20087;-79
2021/09/06 00:07:25;;;;;;;5.13;1.50;;;;;;;;;;5025238;28;20072;-79
2021/09/06 00:09:59;;;;;;;1.90;1.67;;;;;;;;;;5023348;28;20075;-79
2021/09/06 00:12:25;;;;;;;1.75;1.65;;;;;;;;;;5042536;28;20041;-79
2021/09/06 00:14:52;;;;;;;1.67;1.40;;;;;;;;;;5024779;28;20521;-79
2021/09/06 00:17:19;;;;;;;3.17;1.35;;;;;;;;;;5027989;28;20395;-79
2021/09/06 00:19:45;;;;;;;1.63;1.52;;;;;;;;;;5024037;28;20068;-79
2021/09/06 00:22:12;;;;;;;1.48;1.48;;;;;;;;;;5025718;28;20034;-79
2021/09/06 00:24:40;;;;;;;1.73;1.63;;;;;;;;;;5020874;28;20045;-79
2021/09/06 00:27:06;;;;;;;1.70;1.60;;;;;;;;;;5039989;28;20056;-79
2021/09/06 00:29:33;;;;;;;1.55;1.45;;;;;;;;;;5009612;28;20403;-79
2021/09/06 00:32:03;;;;;;;1.40;1.40;;;;;;;;;;5022126;28;20038;-79
2021/09/06 00:34:30;;;;;;;1.42;1.42;;;;;;;;;;5016858;28;20073;-79
2021/09/06 00:36:57;;;;;;;1.80;1.70;;;;;;;;;;5025690;28;20444;-79
2021/09/06 00:39:24;;;;;;;1.70;1.60;;;;;;;;;;5025014;28;20050;-79
2021/09/06 00:41:50;;;;;;;1.83;1.83;;;;;;;;;;5025708;28;20041;-79
2021/09/06 00:44:17;;;;;;;1.70;1.60;;;;;;;;;;5057397;28;20437;-79
2021/09/06 00:46:46;;;;;;;2.08;2.00;;;;;;;;;;5022067;28;20042;-79
2021/09/06 00:49:15;;;;;;;1.83;1.73;;;;;;;;;;5028213;28;20037;-79
2021/09/06 00:51:42;;;;;;;2.00;1.67;;;;;;;;;;5058315;28;20095;-79
2021/09/06 00:54:09;;;;;;;2.45;1.75;;;;;;;;;;5027743;28;20088;-79
2021/09/06 00:56:36;;;;;;;11.90;2.03;;;;;;;;;;5012284;28;20095;-79
2021/09/06 00:59:02;;;;;;;1.92;1.80;;;;;;;;;;5028877;28;20045;-79
2021/09/06 01:01:29;;;;;;;1.80;1.70;;;;;;;;;;5029204;28;20084;-79
2021/09/06 01:03:57;;;;;;;1.40;1.40;;;;;;;;;;5027042;28;20069;-79
2021/09/06 01:06:24;;;;;;;3.00;1.90;;;;;;;;;;5026923;28;20038;-79
2021/09/06 01:08:51;;;;;;;1.58;1.58;;;;;;;;;;5024585;28;20041;-79
2021/09/06 01:11:17;;;;;;;1.95;1.85;;;;;;;;;;5053095;28;20034;-79
2021/09/06 01:13:44;;;;;;;2.47;2.30;;;;;;;;;;5025872;28;20104;-79
2021/09/06 01:16:10;;;;;;;2.83;2.20;;;;;;;;;;5024428;28;20042;-79
2021/09/06 01:18:37;;;;;;;2.17;1.92;;;;;;;;;;5027916;28;20087;-79
2021/09/06 01:21:04;;;;;;;1.67;1.52;;;;;;;;;;5029170;28;20066;-79
2021/09/06 01:23:30;;;;;;;1.95;1.95;;;;;;;;;;5025519;28;20107;-79
2021/09/06 01:25:57;;;;;;;1.80;1.80;;;;;;;;;;5028723;28;20045;-79
2021/09/06 01:28:24;;;;;;;2.03;1.80;;;;;;;;;;5027860;28;20043;-79
2021/09/06 01:30:50;;;;;;;1.60;1.60;;;;;;;;;;5028810;28;20045;-79
2021/09/06 01:33:17;;;;;;;1.95;1.95;;;;;;;;;;5028954;28;20041;-79
2021/09/06 01:35:44;;;;;;;2.30;2.08;;;;;;;;;;5026813;28;20446;-79
2021/09/06 01:38:10;;;;;;;4.63;3.50;;;;;;;;;;5028803;28;20072;-79
2021/09/06 01:40:38;;;;;;;1.63;1.63;;;;;;;;;;5058909;28;20053;-79
2021/09/06 01:43:05;;;;;;;2.00;1.90;;;;;;;;;;5011913;28;20066;-79
2021/09/06 01:45:32;;;;;;;1.60;1.60;;;;;;;;;;5030066;28;20046;-79
2021/09/06 01:47:58;;;;;;;1.70;1.70;;;;;;;;;;5028097;28;20099;-79
2021/09/06 01:50:25;;;;;;;2.45;2.45;;;;;;;;;;5059842;28;20049;-79
2021/09/06 01:52:52;;;;;;;2.08;2.08;;;;;;;;;;5028027;28;20115;-79
2021/09/06 01:55:18;;;;;;;2.20;2.00;;;;;;;;;;5025521;28;20150;-79
2021/09/06 01:57:45;;;;;;;2.00;2.00;;;;;;;;;;5029649;28;20053;-79
2021/09/06 02:00:12;;;;;;;3.75;2.33;;;;;;;;;;5027035;28;20084;-79
2021/09/06 02:02:39;;;;;;;4.18;2.47;;;;;;;;;;5027756;28;20045;-79
2021/09/06 02:05:06;;;;;;;2.13;2.13;;;;;;;;;;5030187;28;20052;-79
2021/09/06 02:07:34;;;;;;;2.10;2.08;;;;;;;;;;5026317;28;20520;-79
2021/09/06 02:10:00;;;;;;;2.35;2.25;;;;;;;;;;5028220;28;20042;-79
2021/09/06 02:12:27;;;;;;;1.67;1.67;;;;;;;;;;5058528;28;20444;-79
2021/09/06 02:14:54;;;;;;;1.83;1.73;;;;;;;;;;5026794;28;20116;-79
2021/09/06 02:17:20;;;;;;;1.98;1.88;;;;;;;;;;5028286;28;20088;-79
2021/09/06 02:19:47;;;;;;;1.80;1.70;;;;;;;;;;5026074;28;20038;-79
2021/09/06 02:22:13;;;;;;;2.40;2.20;;;;;;;;;;5028900;28;20041;-79
2021/09/06 02:24:40;;;;;;;2.53;2.33;;;;;;;;;;5025577;28;20045;-79
2021/09/06 02:27:07;;;;;;;2.58;2.40;;;;;;;;;;5025997;28;20049;-79
2021/09/06 02:29:33;;;;;;;2.60;2.40;;;;;;;;;;5028719;28;20037;-79
2021/09/06 02:32:00;;;;;;;1.75;1.75;;;;;;;;;;5026843;28;20091;-79
2021/09/06 02:34:27;;;;;;;2.70;2.60;;;;;;;;;;5027279;28;20528;-79
2021/09/06 02:36:53;;;;;;;1.75;1.65;;;;;;;;;;5026477;28;20087;-79
2021/09/06 02:39:20;;;;;;;2.38;2.17;;;;;;;;;;5026529;28;20033;-79
2021/09/06 02:41:46;;;;;;;4.07;2.30;;;;;;;;;;5026608;28;20033;-79
2021/09/06 02:44:13;;;;;;;2.10;1.25;;;;;;;;;;5010178;28;20041;-80
2021/09/06 02:46:40;;;;;;;3.67;1.98;;;;;;;;;;5029030;28;20037;-79
2021/09/06 02:49:08;;;;;;;2.65;2.22;;;;;;;;;;5024221;28;20077;-79
2021/09/06 02:51:35;;;;;;;2.15;2.05;;;;;;;;;;5026316;28;20069;-79
2021/09/06 02:54:02;;;;;;;2.58;1.85;;;;;;;;;;5059893;28;20083;-79
2021/09/06 02:56:28;;;;;;;2.40;2.20;;;;;;;;;;5024776;28;20045;-79
2021/09/06 02:58:55;;;;;;;2.58;2.25;;;;;;;;;;5011658;28;20104;-79
2021/09/06 03:01:22;;;;;;;2.35;2.25;;;;;;;;;;5027136;28;20041;-79
2021/09/06 03:03:48;;;;;;;2.22;2.15;;;;;;;;;;5027135;28;20041;-79
2021/09/06 03:06:15;;;;;;;2.53;2.42;;;;;;;;;;5028013;28;20510;-79
2021/09/06 03:08:42;;;;;;;2.00;1.90;;;;;;;;;;5025890;28;20362;-79
2021/09/06 03:11:09;;;;;;;2.90;2.80;;;;;;;;;;5013650;28;20095;-79
2021/09/06 03:13:35;;;;;;;1.92;1.85;;;;;;;;;;5028085;28;20552;-79
2021/09/06 03:16:02;;;;;;;2.03;1.92;;;;;;;;;;5026597;28;20034;-79
2021/09/06 03:18:29;;;;;;;2.30;2.15;;;;;;;;;;5027361;28;20044;-79
2021/09/06 03:20:55;;;;;;;1.83;1.73;;;;;;;;;;5023140;28;20056;-79
2021/09/06 03:23:22;;;;;;;1.85;1.70;;;;;;;;;;5003403;28;20457;-79
2021/09/06 03:25:49;;;;;;;2.28;2.17;;;;;;;;;;5024106;28;20100;-79
2021/09/06 03:28:15;;;;;;;1.50;1.50;;;;;;;;;;5017848;28;20493;-79
2021/09/06 03:30:42;;;;;;;2.65;2.55;;;;;;;;;;5043526;28;20338;-80
2021/09/06 03:33:13;;;;;;;2.45;2.45;;;;;;;;;;5026422;28;20037;-79
2021/09/06 03:35:43;;;;;;;3.15;3.05;;;;;;;;;;5024994;28;20033;-79
2021/09/06 03:38:13;;;;;;;2.75;2.65;;;;;;;;;;5027722;28;20052;-79
2021/09/06 03:40:40;;;;;;;2.30;2.30;;;;;;;;;;5040782;28;20058;-79
2021/09/06 03:43:07;;;;;;;2.28;2.28;;;;;;;;;;5027694;28;20045;-79
2021/09/06 03:45:35;;;;;;;2.33;2.22;;;;;;;;;;5024705;28;20496;-79
2021/09/06 03:48:01;;;;;;;2.60;1.73;;;;;;;;;;5026103;28;20188;-79
2021/09/06 03:50:28;;;;;;;2.92;2.67;;;;;;;;;;5025752;28;20107;-79
2021/09/06 03:52:54;;;;;;;5.75;2.65;;;;;;;;;;5040339;28;20460;-79
2021/09/06 03:55:21;;;;;;;2.90;2.75;;;;;;;;;;5025824;28;20371;-79
2021/09/06 03:57:48;;;;;;;3.08;2.97;;;;;;;;;;5026345;28;20056;-79
2021/09/06 04:00:14;;;;;;;3.63;3.15;;;;;;;;;;5025600;28;20072;-79
2021/09/06 04:02:41;;;;;;;3.00;2.90;;;;;;;;;;5009013;28;20080;-79
2021/09/06 04:05:08;;;;;;;3.42;3.28;;;;;;;;;;5008937;28;20064;-79
2021/09/06 04:07:35;;;;;;;3.83;3.53;;;;;;;;;;5025187;28;20065;-79
2021/09/06 04:10:02;;;;;;;3.47;3.38;;;;;;;;;;5026420;28;20123;-79
2021/09/06 04:12:29;;;;;;;2.80;2.60;;;;;;;;;;5024599;28;20045;-79
2021/09/06 04:14:55;;;;;;;2.78;2.65;;;;;;;;;;5021835;28;20049;-79
2021/09/06 04:17:22;;;;;;;2.63;2.53;;;;;;;;;;5023617;28;20034;-79
2021/09/06 04:19:49;;;;;;;2.20;2.20;;;;;;;;;;5023075;28;20029;-79
2021/09/06 04:22:15;;;;;;;2.50;2.30;;;;;;;;;;5026767;28;20042;-79
2021/09/06 04:24:45;;;;;;;2.45;2.38;;;;;;;;;;5028636;28;20497;-79
2021/09/06 04:27:12;;;;;;;2.17;2.08;;;;;;;;;;5029707;28;20520;-79
2021/09/06 04:29:38;;;;;;;2.15;2.05;;;;;;;;;;5045261;28;20107;-79
2021/09/06 04:32:06;;;;;;;2.00;2.00;;;;;;;;;;5027557;28;20078;-79
2021/09/06 04:34:32;;;;;;;2.35;2.35;;;;;;;;;;5029097;28;20077;-79
2021/09/06 04:36:59;;;;;;;3.13;3.03;;;;;;;;;;5028608;28;20030;-79
2021/09/06 04:39:26;;;;;;;2.22;2.22;;;;;;;;;;5027496;28;20460;-79
2021/09/06 04:41:52;;;;;;;2.25;2.25;;;;;;;;;;5029621;28;20033;-79
2021/09/06 04:44:19;;;;;;;2.53;2.42;;;;;;;;;;5029180;28;20205;-79
2021/09/06 04:46:46;;;;;;;2.72;2.63;;;;;;;;;;5030925;28;20041;-79
2021/09/06 04:49:13;;;;;;;2.42;2.22;;;;;;;;;;5027416;28;20042;-79
2021/09/06 04:51:40;;;;;;;4.50;2.58;;;;;;;;;;5028986;28;20037;-79
2021/09/06 04:54:06;;;;;;;3.35;1.98;;;;;;;;;;5029631;28;20091;-79
2021/09/06 04:56:33;;;;;;;2.67;2.53;;;;;;;;;;5026734;28;20548;-79
2021/09/06 04:59:00;;;;;;;1.95;1.95;;;;;;;;;;5020943;28;20030;-79
2021/09/06 05:01:27;;;;;;;1.77;1.77;;;;;;;;;;5038683;28;20037;-79
2021/09/06 05:03:54;;;;;;;2.10;1.92;;;;;;;;;;5030362;28;20079;-79
2021/09/06 05:06:20;;;;;;;2.40;2.35;;;;;;;;;;5026384;28;20060;-79
2021/09/06 05:08:47;;;;;;;2.28;2.10;;;;;;;;;;5029481;28;20047;-79
2021/09/06 05:11:14;;;;;;;2.85;2.03;;;;;;;;;;5030153;28;20367;-79
2021/09/06 05:13:41;;;;;;;4.68;2.10;;;;;;;;;;5060029;28;20041;-79
2021/09/06 05:16:07;;;;;;;2.75;2.65;;;;;;;;;;5030147;28;20052;-79
2021/09/06 05:18:34;;;;;;;2.38;2.25;;;;;;;;;;5042437;28;20049;-79
2021/09/06 05:21:01;;;;;;;2.28;2.28;;;;;;;;;;5027955;28;20049;-79
2021/09/06 05:23:28;;;;;;;2.10;2.00;;;;;;;;;;5028798;28;20485;-80
2021/09/06 05:25:55;;;;;;;2.60;2.20;;;;;;;;;;5029096;28;20065;-80
2021/09/06 05:28:22;;;;;;;2.65;2.08;;;;;;;;;;5061085;28;20065;-80
2021/09/06 05:30:49;;;;;;;2.03;1.92;;;;;;;;;;5030046;28;20069;-80
2021/09/06 05:33:16;;;;;;;2.78;2.67;;;;;;;;;;5027463;28;20037;-80
2021/09/06 05:35:42;;;;;;;3.17;2.75;;;;;;;;;;5029399;28;20033;-80
2021/09/06 05:38:09;;;;;;;3.10;2.95;;;;;;;;;;5012313;28;20493;-80
2021/09/06 05:40:36;;;;;;;4.97;2.22;;;;;;;;;;5025991;28;20722;-80
2021/09/06 05:43:03;;;;;;;2.88;2.67;;;;;;;;;;5025408;28;20088;-80
2021/09/06 05:45:30;;;;;;;3.28;2.97;;;;;;;;;;5021071;28;20041;-80
2021/09/06 05:47:57;;;;;;;3.03;2.53;;;;;;;;;;5028428;28;20064;-80
2021/09/06 05:50:25;;;;;;;3.13;3.03;;;;;;;;;;5027002;28;20034;-80
2021/09/06 05:52:52;;;;;;;2.92;2.83;;;;;;;;;;5026559;28;20042;-80
2021/09/06 05:55:20;;;;;;;4.35;1.65;;;;;;;;;;5029408;28;20042;-80
2021/09/06 05:57:46;;;;;;;2.63;2.53;;;;;;;;;;5029020;28;20033;-80
2021/09/06 06:00:13;;;;;;;3.53;2.95;;;;;;;;;;5029205;28;20437;-80
2021/09/06 06:02:40;;;;;;;2.88;2.67;;;;;;;;;;5027149;28;20040;-80
2021/09/06 06:05:08;;;;;;;2.53;2.03;;;;;;;;;;5029499;28;20042;-80
2021/09/06 06:07:38;;;;;;;3.90;2.42;;;;;;;;;;5028981;28;20045;-80
2021/09/06 06:10:05;;;;;;;3.05;2.85;;;;;;;;;;5023307;28;20107;-80
2021/09/06 06:12:31;;;;;;;2.70;2.60;;;;;;;;;;5030546;28;20060;-80
2021/09/06 06:14:58;;;;;;;3.10;1.80;;;;;;;;;;5060248;28;20030;-80
2021/09/06 06:17:25;;;;;;;2.00;2.00;;;;;;;;;;5030024;28;20393;-80
2021/09/06 06:19:52;;;;;;;3.70;3.33;;;;;;;;;;5029353;28;20115;-80
2021/09/06 06:22:19;;;;;;;1.33;1.33;;;;;;;;;;5027388;28;20046;-80
2021/09/06 06:24:45;;;;;;;1.65;1.55;;;;;;;;;;5029475;28;20542;-80
2021/09/06 06:27:12;;;;;;;2.55;1.95;;;;;;;;;;5060400;28;20569;-80
2021/09/06 06:29:39;;;;;;;4.00;2.30;;;;;;;;;;5033018;28;20037;-80
2021/09/06 06:32:05;;;;;;;1.90;1.80;;;;;;;;;;5029148;28;20045;-80
2021/09/06 06:34:32;;;;;;;1.70;1.60;;;;;;;;;;5025786;28;20041;-80
2021/09/06 06:36:59;;;;;;;1.70;1.60;;;;;;;;;;5043619;28;20034;-80
2021/09/06 06:39:25;;;;;;;2.15;1.70;;;;;;;;;;5061560;28;20045;-80
2021/09/06 06:41:52;;;;;;;1.90;1.80;;;;;;;;;;5053579;28;20052;-80
2021/09/06 06:44:19;;;;;;;3.53;2.28;;;;;;;;;;5030666;28;20448;-80
2021/09/06 06:46:46;;;;;;;2.67;1.70;;;;;;;;;;5026544;28;20045;-80
2021/09/06 06:49:12;;;;;;;2.67;2.03;;;;;;;;;;5028385;28;20050;-80
2021/09/06 06:51:39;;;;;;;4.18;2.58;;;;;;;;;;5029848;28;20539;-80
2021/09/06 06:54:06;;;;;;;2.10;2.00;;;;;;;;;;5027843;28;20044;-80
2021/09/06 06:56:32;;;;;;;5.47;1.63;;;;;;;;;;5027974;28;20092;-80
2021/09/06 06:58:59;;;;;;;2.72;2.00;;;;;;;;;;5028575;28;20038;-80
2021/09/06 07:01:26;;;;;;;7.10;1.55;;;;;;;;;;5026479;28;20104;-80
2021/09/06 07:03:53;;;;;;;3.85;2.58;;;;;;;;;;5027789;28;20140;-80
2021/09/06 07:06:20;;;;;;;1.85;1.70;;;;;;;;;;5028870;28;20430;-80
2021/09/06 07:08:46;;;;;;;1.92;1.80;;;;;;;;;;5009960;28;20042;-80
2021/09/06 07:11:13;;;;;;;2.67;2.47;;;;;;;;;;5027164;28;20053;-80
2021/09/06 07:13:39;;;;;;;1.92;1.42;;;;;;;;;;5028357;28;20871;-80
2021/09/06 07:16:07;;;;;;;1.98;1.70;;;;;;;;;;5028709;28;20045;-80
2021/09/06 07:18:34;;;;;;;2.65;1.30;;;;;;;;;;5025726;28;20041;-80
2021/09/06 07:21:02;;;;;;;1.45;1.10;;;;;;;;;;5029502;28;20037;-80
2021/09/06 07:23:28;;;;;;;3.65;1.30;;;;;;;;;;5059272;28;20141;-80
2021/09/06 07:25:55;;;;;;;3.70;1.52;;;;;;;;;;5026925;28;20095;-80
2021/09/06 07:28:21;;;;;;;1.40;1.40;;;;;;;;;;5023136;28;20063;-80
2021/09/06 07:30:48;;;;;;;1.35;1.08;;;;;;;;;;5022990;28;20069;-80
2021/09/06 07:33:14;;;;;;;1.73;1.35;;;;;;;;;;5043695;28;20091;-80
2021/09/06 07:35:41;;;;;;;1.48;1.10;;;;;;;;;;5058458;28;20249;-80
2021/09/06 07:38:08;;;;;;;1.63;1.20;;;;;;;;;;5027439;28;20041;-80
2021/09/06 07:40:34;;;;;;;1.30;1.20;;;;;;;;;;5028816;28;20049;-80
2021/09/06 07:43:01;;;;;;;1.02;1.02;;;;;;;;;;5028345;28;20033;-79
2021/09/06 07:45:28;;;;;;;3.40;1.48;;;;;;;;;;5023666;28;20038;-80
2021/09/06 07:47:54;;;;;;;1.33;1.23;;;;;;;;;;5059066;28;20393;-80
2021/09/06 07:50:21;;;;;;;5.60;1.08;;;;;;;;;;5025941;28;20049;-80
2021/09/06 07:52:48;;;;;;;2.05;1.15;;;;;;;;;;5011581;28;20449;-80
2021/09/06 07:55:14;;;;;;;0.90;0.90;;;;;;;;;;5024550;28;20034;-80
2021/09/06 07:57:41;;;;;;;1.75;1.00;;;;;;;;;;5028405;28;20040;-80
2021/09/06 08:00:08;;;;;;;1.63;1.00;;;;;;;;;;5031856;28;20113;-80
2021/09/06 08:02:48;;;;;;;0.80;0.80;;;;;;;;;;5030420;28;20382;-80
2021/09/06 08:05:19;;;;;;;1.10;1.00;;;;;;;;;;5063687;28;20073;-80
2021/09/06 08:07:51;;;;;;;0.93;0.93;;;;;;;;;;5030517;28;20033;-80
2021/09/06 08:10:18;;;;;;;1.65;0.95;;;;;;;;;;5029108;28;20048;-81
2021/09/06 08:12:44;;;;;;;0.80;0.80;;;;;;;;;;5030944;28;20460;-81
2021/09/06 08:15:11;;;;;;;2.13;0.85;;;;;;;;;;5031195;28;20037;-81
2021/09/06 08:17:38;;;;;;;2.15;0.90;;;;;;;;;;5015835;28;20034;-81
2021/09/06 08:20:07;;;;;;;0.80;0.80;;;;;;;;;;5030222;28;20108;-81
2021/09/06 08:22:34;;;;;;;2.80;0.77;;;;;;;;;;5030621;28;20481;-81
2021/09/06 08:25:02;;;;;;;3.53;0.90;;;;;;;;;;5032149;28;20052;-81
2021/09/06 08:27:29;;;;;;;2.03;0.90;;;;;;;;;;5045129;28;20048;-81
2021/09/06 08:29:56;;;;;;;3.92;0.80;;;;;;;;;;5004117;28;20049;-81
2021/09/06 08:32:23;;;;;;;1.27;0.80;;;;;;;;;;5032034;28;20056;-81
2021/09/06 08:34:52;;;;;;;0.70;0.70;;;;;;;;;;5029251;28;20080;-81
2021/09/06 08:37:19;;;;;;;1.50;0.70;;;;;;;;;;5031321;28;20091;-81
2021/09/06 08:39:46;;;;;;;1.63;0.70;;;;;;;;;;5030019;28;20045;-81
2021/09/06 08:42:14;;;;;;;0.70;0.70;;;;;;;;;;5028872;28;20487;-81
2021/09/06 08:44:41;;;;;;;0.70;0.70;;;;;;;;;;5033610;28;20085;-81
2021/09/06 08:47:08;;;;;;;1.63;0.70;;;;;;;;;;5029194;28;20068;-81
2021/09/06 08:49:36;;;;;;;0.70;0.70;;;;;;;;;;5046501;28;20042;-81
2021/09/06 08:52:02;;;;;;;0.70;0.70;;;;;;;;;;5028343;28;20357;-81
2021/09/06 08:54:29;;;;;;;0.60;0.60;;;;;;;;;;5061958;28;20037;-81
2021/09/06 08:56:56;;;;;;;1.15;0.80;;;;;;;;;;5029811;28;20115;-81
2021/09/06 08:59:22;;;;;;;0.70;0.70;;;;;;;;;;5022315;28;20077;-81
2021/09/06 09:01:51;;;;;;;2.28;0.60;;;;;;;;;;5030587;28;20041;-81
2021/09/06 09:04:20;;;;;;;1.15;0.60;;;;;;;;;;5030036;28;20286;-81
2021/09/06 09:06:52;;;;;;;1.40;0.52;;;;;;;;;;5061012;28;20068;-81
2021/09/06 09:09:22;;;;;;;3.80;0.70;;;;;;;;;;5062910;28;20036;-81
2021/09/06 09:12:13;;;;;;;0.88;0.70;;;;;;;;;;5058411;28;20043;-81
2021/09/06 09:14:41;;;;;;;0.82;0.80;;;;;;;;;;5024002;28;20046;-81
2021/09/06 09:17:09;;;;;;;0.60;0.60;;;;;;;;;;5031219;28;20041;-81
2021/09/06 09:19:37;;;;;;;0.60;0.60;;;;;;;;;;5029545;28;20040;-81
2021/09/06 09:22:05;;;;;;;1.95;0.60;;;;;;;;;;5029747;28;20046;-81
2021/09/06 09:24:32;;;;;;;0.60;0.60;;;;;;;;;;5028921;28;20048;-81
2021/09/06 09:27:02;;;;;;;0.50;0.50;;;;;;;;;;5014594;28;20486;-81
2021/09/06 09:29:29;;;;;;;0.60;0.60;;;;;;;;;;5030914;28;20048;-81
2021/09/06 09:31:56;;;;;;;0.80;0.60;;;;;;;;;;5029707;28;20103;-81
2021/09/06 09:34:24;;;;;;;0.60;0.60;;;;;;;;;;5010593;28;20046;-81
2021/09/06 09:36:54;;;;;;;0.60;0.60;;;;;;;;;;5029753;28;20053;-81
2021/09/06 09:39:21;;;;;;;0.60;0.52;;;;;;;;;;5013890;28;20038;-81
2021/09/06 09:41:49;;;;;;;2.22;0.55;;;;;;;;;;5029630;28;20049;-81
2021/09/06 09:44:17;;;;;;;0.60;0.60;;;;;;;;;;5043647;28;20087;-81
2021/09/06 09:46:52;;;;;;;0.60;0.60;;;;;;;;;;5011057;28;20037;-81
2021/09/06 09:49:19;;;;;;;0.63;0.63;;;;;;;;;;5028227;28;20044;-81
2021/09/06 09:51:46;;;;;;;0.70;0.70;;;;;;;;;;5045198;28;20769;-81
2021/09/06 09:54:13;;;;;;;0.60;0.60;;;;;;;;;;5029929;28;20075;-81
2021/09/06 09:56:41;;;;;;;0.60;0.60;;;;;;;;;;5059444;28;20040;-81
2021/09/06 09:59:08;;;;;;;1.60;0.60;;;;;;;;;;5029238;28;20037;-81
2021/09/06 10:01:39;;;;;;;1.75;0.60;;;;;;;;;;5030961;28;20091;-81
2021/09/06 10:04:08;;;;;;;0.60;0.60;;;;;;;;;;5029251;28;20041;-81
2021/09/06 10:06:36;;;;;;;0.60;0.60;;;;;;;;;;5030845;28;20049;-81
2021/09/06 10:09:04;;;;;;;5.38;0.60;;;;;;;;;;5013581;28;20453;-81
2021/09/06 10:11:35;;;;;;;0.60;0.60;;;;;;;;;;5028139;28;20045;-81
2021/09/06 10:14:21;;;;;;;2.63;0.52;;;;;;;;;;5012404;28;20402;-81
2021/09/06 10:16:48;;;;;;;0.50;0.50;;;;;;;;;;5059154;28;20037;-81
2021/09/06 10:19:16;;;;;;;0.90;0.55;;;;;;;;;;5061141;28;20041;-81
2021/09/06 10:21:46;;;;;;;0.55;0.55;;;;;;;;;;5028831;28;20525;-81
2021/09/06 10:24:14;;;;;;;1.15;0.60;;;;;;;;;;5026879;28;20037;-81
2021/09/06 10:26:41;;;;;;;0.70;0.70;;;;;;;;;;5041417;28;20037;-81
2021/09/06 10:29:13;;;;;;;0.80;0.50;;;;;;;;;;5043454;28;20053;-81
2021/09/06 10:31:40;;;;;;;0.40;0.40;;;;;;;;;;5028467;28;20111;-81
2021/09/06 10:34:08;;;;;;;0.80;0.60;;;;;;;;;;5028616;28;20087;-81
2021/09/06 10:36:35;;;;;;;0.60;0.60;;;;;;;;;;5027530;28;20091;-81
2021/09/06 10:39:03;;;;;;;1.05;1.05;;;;;;;;;;5027726;28;20500;-81
2021/09/06 10:41:30;;;;;;;1.70;0.50;;;;;;;;;;5030837;28;20045;-81
2021/09/06 10:43:58;;;;;;;0.60;0.60;;;;;;;;;;5028679;28;20045;-81
2021/09/06 10:46:26;;;;;;;1.15;0.50;;;;;;;;;;5048868;28;20048;-82
2021/09/06 10:48:53;;;;;;;0.50;0.50;;;;;;;;;;5025146;28;20045;-82
2021/09/06 10:51:27;;;;;;;0.60;0.60;;;;;;;;;;5061307;28;20044;-82
2021/09/06 10:53:57;;;;;;;0.50;0.50;;;;;;;;;;5029122;28;20505;-82
2021/09/06 10:56:25;;;;;;;0.50;0.50;;;;;;;;;;5028534;28;20092;-82
2021/09/06 10:58:54;;;;;;;1.40;0.60;;;;;;;;;;5028110;28;20502;-82
2021/09/06 11:01:21;;;;;;;0.60;0.60;;;;;;;;;;5027781;28;20061;-82
2021/09/06 11:03:48;;;;;;;0.77;0.60;;;;;;;;;;5018616;28;20049;-82
2021/09/06 11:06:15;;;;;;;0.50;0.50;;;;;;;;;;5021698;28;20042;-82
2021/09/06 11:08:44;;;;;;;0.50;0.50;;;;;;;;;;5027926;28;20057;-82
2021/09/06 11:11:10;;;;;;;2.45;0.60;;;;;;;;;;5044120;28;20041;-82
2021/09/06 11:13:41;;;;;;;0.50;0.50;;;;;;;;;;5012623;28;20164;-80
2021/09/06 11:16:09;;;;;;;3.22;0.50;;;;;;;;;;5048810;28;20099;-79
2021/09/06 11:18:37;;;;;;;1.60;0.50;;;;;;;;;;5027862;28;20026;-79
2021/09/06 11:21:04;;;;;;;0.65;0.50;;;;;;;;;;5024469;28;20030;-79
2021/09/06 11:23:38;;;;;;;0.50;0.50;;;;;;;;;;5040838;28;20037;-79
2021/09/06 11:26:06;;;;;;;0.50;0.50;;;;;;;;;;5046095;28;20085;-79
2021/09/06 11:28:33;;;;;;;0.50;0.50;;;;;;;;;;5052789;28;20075;-79
2021/09/06 11:31:00;;;;;;;0.50;0.50;;;;;;;;;;5029522;28;20048;-79
2021/09/06 11:33:28;;;;;;;0.50;0.50;;;;;;;;;;5026104;28;20042;-79
2021/09/06 11:35:55;;;;;;;1.40;0.50;;;;;;;;;;5029194;28;20037;-79
2021/09/06 11:38:22;;;;;;;1.15;0.50;;;;;;;;;;5029155;28;20048;-77
2021/09/06 11:40:50;;;;;;;0.50;0.45;;;;;;;;;;5026400;28;20420;-77
2021/09/06 11:43:17;;;;;;;0.50;0.50;;;;;;;;;;5025675;28;20572;-77
2021/09/06 11:45:43;;;;;;;0.50;0.50;;;;;;;;;;5026362;28;20128;-77
2021/09/06 11:48:10;;;;;;;2.95;0.52;;;;;;;;;;5024704;28;20053;-77
2021/09/06 11:50:38;;;;;;;0.43;0.43;;;;;;;;;;5027957;28;20455;-78
2021/09/06 11:53:07;;;;;;;1.25;0.50;;;;;;;;;;5023294;28;20072;-77
2021/09/06 11:55:34;;;;;;;0.50;0.50;;;;;;;;;;5027575;28;20033;-77
2021/09/06 11:58:08;;;;;;;0.50;0.50;;;;;;;;;;5025594;28;20398;-77
2021/09/06 12:00:39;;;;;;;1.88;0.55;;;;;;;;;;5052672;28;20045;-77
2021/09/06 12:03:07;;;;;;;0.40;0.40;;;;;;;;;;5043347;28;20048;-77
2021/09/06 12:05:38;;;;;;;0.40;0.40;;;;;;;;;;5024140;28;20037;-77
2021/09/06 12:08:09;;;;;;;1.45;0.52;;;;;;;;;;5026320;28;20045;-77
2021/09/06 12:10:36;;;;;;;0.85;0.55;;;;;;;;;;5043378;28;20049;-79
2021/09/06 12:13:04;;;;;;;0.50;0.50;;;;;;;;;;5027923;28;20049;-79
2021/09/06 12:15:35;;;;;;;0.50;0.50;;;;;;;;;;5021843;28;20100;-79
2021/09/06 12:18:05;;;;;;;0.57;0.57;;;;;;;;;;5025498;28;20478;-79
2021/09/06 12:20:34;;;;;;;0.57;0.57;;;;;;;;;;5027700;28;20025;-79
2021/09/06 12:23:01;;;;;;;0.60;0.60;;;;;;;;;;5020350;28;20498;-79
2021/09/06 12:25:27;;;;;;;0.50;0.50;;;;;;;;;;5027972;28;20030;-79
2021/09/06 12:28:04;;;;;;;0.57;0.55;;;;;;;;;;5024603;28;20065;-80
2021/09/06 12:30:31;;;;;;;3.35;1.05;;;;;;;;;;5026339;28;20038;-79
2021/09/06 12:32:58;;;;;;;0.60;0.60;;;;;;;;;;5015340;28;20041;-79
2021/09/06 12:35:25;;;;;;;1.52;0.60;;;;;;;;;;5027450;28;20061;-79
2021/09/06 12:37:51;;;;;;;2.03;0.63;;;;;;;;;;5055777;28;20029;-79
2021/09/06 12:40:18;;;;;;;0.52;0.50;;;;;;;;;;5008902;28;20081;-79
2021/09/06 12:42:49;;;;;;;2.05;0.60;;;;;;;;;;5043485;28;20481;-79
2021/09/06 12:45:15;;;;;;;0.50;0.50;;;;;;;;;;5029772;28;20037;-79
2021/09/06 12:47:42;;;;;;;0.57;0.57;;;;;;;;;;5031539;28;20045;-79
2021/09/06 12:50:09;;;;;;;1.42;0.60;;;;;;;;;;5028953;28;20041;-79
2021/09/06 12:52:36;;;;;;;0.80;0.70;;;;;;;;;;5031055;28;20453;-79
2021/09/06 12:55:03;;;;;;;0.50;0.50;;;;;;;;;;5032380;28;20036;-79
2021/09/06 12:57:30;;;;;;;0.50;0.50;;;;;;;;;;5030467;28;20022;-79
2021/09/06 12:59:56;;;;;;;0.52;0.52;;;;;;;;;;5030594;28;20067;-79
2021/09/06 13:02:23;;;;;;;0.60;0.60;;;;;;;;;;5029843;28;20068;-79
2021/09/06 13:04:50;;;;;;;0.52;0.52;;;;;;;;;;5031451;28;20033;-79
2021/09/06 13:07:17;;;;;;;0.60;0.60;;;;;;;;;;5032130;28;20049;-78
2021/09/06 13:09:43;;;;;;;2.28;0.60;;;;;;;;;;5031490;28;20303;-79
2021/09/06 13:12:10;;;;;;;0.55;0.55;;;;;;;;;;5029880;28;20045;-79
2021/09/06 13:14:36;;;;;;;1.38;0.50;;;;;;;;;;5030226;28;20452;-79
2021/09/06 13:17:03;;;;;;;0.60;0.60;;;;;;;;;;5029444;28;20556;-79
2021/09/06 13:19:29;;;;;;;2.35;0.60;;;;;;;;;;5029516;28;20064;-79
2021/09/06 13:21:56;;;;;;;0.50;0.50;;;;;;;;;;5027278;28;20075;-79
2021/09/06 13:24:24;;;;;;;1.45;0.52;;;;;;;;;;5030825;28;20397;-79
2021/09/06 13:26:50;;;;;;;0.50;0.50;;;;;;;;;;5028678;28;20073;-79
2021/09/06 13:29:17;;;;;;;1.58;0.60;;;;;;;;;;5025550;28;20076;-79
2021/09/06 13:31:45;;;;;;;0.60;0.60;;;;;;;;;;5024820;28;20402;-79
2021/09/06 13:34:12;;;;;;;0.50;0.50;;;;;;;;;;5038823;28;20044;-79
2021/09/06 13:36:38;;;;;;;0.60;0.60;;;;;;;;;;5030419;28;20197;-79
2021/09/06 13:39:05;;;;;;;0.60;0.60;;;;;;;;;;5028829;28;20506;-79
2021/09/06 13:41:31;;;;;;;0.60;0.60;;;;;;;;;;5028213;28;20053;-79
2021/09/06 13:43:58;;;;;;;0.60;0.60;;;;;;;;;;5030359;28;20044;-79
2021/09/06 13:46:25;;;;;;;0.70;0.70;;;;;;;;;;5027366;28;20083;-79
2021/09/06 13:48:51;;;;;;;1.67;0.60;;;;;;;;;;5030068;28;20545;-79
2021/09/06 13:51:19;;;;;;;3.80;0.70;;;;;;;;;;5028788;28;20037;-79
2021/09/06 13:53:47;;;;;;;0.75;0.60;;;;;;;;;;5026580;28;20453;-79
2021/09/06 13:56:15;;;;;;;1.75;0.60;;;;;;;;;;5030607;28;20072;-79
2021/09/06 13:58:41;;;;;;;0.80;0.80;;;;;;;;;;5028375;28;20529;-79
2021/09/06 14:01:10;;;;;;;1.15;0.60;;;;;;;;;;5036220;28;20125;-79
2021/09/06 14:03:38;;;;;;;2.05;0.73;;;;;;;;;;5028902;28;20520;-79
2021/09/06 14:06:05;;;;;;;1.10;0.60;;;;;;;;;;5028625;28;20037;-79
2021/09/06 14:08:32;;;;;;;1.48;0.57;;;;;;;;;;5025806;28;20053;-79
2021/09/06 14:10:58;;;;;;;1.10;0.80;;;;;;;;;;5057358;28;20130;-79
2021/09/06 14:13:25;;;;;;;2.10;0.70;;;;;;;;;;5025439;28;20517;-79
2021/09/06 14:15:52;;;;;;;1.20;0.60;;;;;;;;;;5030281;28;20496;-79
2021/09/06 14:18:18;;;;;;;0.70;0.70;;;;;;;;;;5027313;28;20030;-78
2021/09/06 14:20:45;;;;;;;0.88;0.70;;;;;;;;;;5028364;28;20510;-78
2021/09/06 14:23:13;;;;;;;0.60;0.60;;;;;;;;;;5027578;28;20057;-79
2021/09/06 14:25:39;;;;;;;0.85;0.80;;;;;;;;;;5029043;28;20115;-79
2021/09/06 14:28:06;;;;;;;0.68;0.68;;;;;;;;;;5033247;28;20568;-78
2021/09/06 14:30:33;;;;;;;2.83;1.00;;;;;;;;;;5024399;28;20437;-78
2021/09/06 14:33:00;;;;;;;0.60;0.60;;;;;;;;;;5011561;28;20049;-79
2021/09/06 14:35:27;;;;;;;1.67;0.70;;;;;;;;;;5027735;28;20034;-79
2021/09/06 14:37:54;;;;;;;0.70;0.70;;;;;;;;;;5027194;28;20076;-79
2021/09/06 14:40:20;;;;;;;3.47;0.70;;;;;;;;;;5029033;28;20493;-79
2021/09/06 14:42:47;;;;;;;2.50;0.60;;;;;;;;;;5026925;28;20034;-79